Time;durP1;ratioP1;P1;durP2;ratioP2;P2;SDS_P1;SDS_P2;PMS_P1;PMS_P2;Temp;Humidity;BMP_temperature;BMP_pressure;BME280_temperature;BME280_humidity;BME280_pressure;Samples;Min_cycle;Max_cycle;Signal;HPM_P1;HPM_P2
2022/06/03 00:00:20;;;;;;;6.53;2.22;;;;;;;;;;4913511;29;20854;-90
2022/06/03 00:02:52;;;;;;;5.93;2.67;;;;;;;;;;4906916;29;20055;-87
2022/06/03 00:05:25;;;;;;;3.20;2.25;;;;;;;;;;4913238;29;21084;-83
2022/06/03 00:08:10;;;;;;;6.40;2.78;;;;;;;;;;4911787;29;20088;-88
2022/06/03 00:10:49;;;;;;;5.03;2.30;;;;;;;;;;4910190;29;20195;-90
2022/06/03 00:13:34;;;;;;;6.30;2.60;;;;;;;;;;4914468;29;20087;-90
2022/06/03 00:16:10;;;;;;;4.63;2.17;;;;;;;;;;4913725;29;20126;-92
2022/06/03 00:18:48;;;;;;;2.88;2.20;;;;;;;;;;4896376;29;20131;-89
2022/06/03 00:21:33;;;;;;;2.53;2.30;;;;;;;;;;4912641;29;20044;-90
2022/06/03 00:24:06;;;;;;;6.65;2.60;;;;;;;;;;4894365;29;20044;-83
2022/06/03 00:26:35;;;;;;;3.97;2.67;;;;;;;;;;4914225;29;20036;-91
2022/06/03 00:29:08;;;;;;;9.95;3.30;;;;;;;;;;4912560;29;20060;-91
2022/06/03 00:31:34;;;;;;;4.93;2.88;;;;;;;;;;4907644;29;20048;-86
2022/06/03 00:34:03;;;;;;;5.20;2.90;;;;;;;;;;4910852;29;20157;-89
2022/06/03 00:36:34;;;;;;;6.22;2.83;;;;;;;;;;4911001;29;20127;-85
2022/06/03 00:39:15;;;;;;;4.70;2.60;;;;;;;;;;4907189;29;20099;-91
2022/06/03 00:41:48;;;;;;;5.78;3.05;;;;;;;;;;4907146;29;20827;-92
2022/06/03 00:44:29;;;;;;;10.05;2.90;;;;;;;;;;4911635;29;20086;-89
2022/06/03 00:46:58;;;;;;;7.05;3.10;;;;;;;;;;4909930;29;20056;-89
2022/06/03 00:49:43;;;;;;;4.43;2.75;;;;;;;;;;4910549;29;20052;-90
2022/06/03 00:52:09;;;;;;;;;;;;;;;;;;4885891;29;20079;-86
2022/06/03 00:54:44;;;;;;;7.85;2.67;;;;;;;;;;4910342;29;19974;-90
2022/06/03 00:57:19;;;;;;;6.88;2.70;;;;;;;;;;4897859;29;20056;-85
2022/06/03 01:00:04;;;;;;;5.70;3.00;;;;;;;;;;4929292;29;20511;-91
2022/06/03 01:02:30;;;;;;;5.40;3.15;;;;;;;;;;4923182;29;20052;-90
2022/06/03 01:04:56;;;;;;;7.22;3.17;;;;;;;;;;4922957;29;20099;-87
2022/06/03 01:07:29;;;;;;;6.13;2.92;;;;;;;;;;4914129;29;20514;-87
2022/06/03 01:09:58;;;;;;;4.28;2.92;;;;;;;;;;4905938;29;20093;-86
2022/06/03 01:12:27;;;;;;;5.60;3.20;;;;;;;;;;4907916;29;20055;-83
2022/06/03 01:15:03;;;;;;;11.85;3.38;;;;;;;;;;4893251;29;20404;-87
2022/06/03 01:17:38;;;;;;;7.78;2.70;;;;;;;;;;4907793;29;20449;-88
2022/06/03 01:20:07;;;;;;;8.93;3.15;;;;;;;;;;4889890;29;20134;-86
2022/06/03 01:22:33;;;;;;;4.53;2.85;;;;;;;;;;4892795;29;20138;-88
2022/06/03 01:25:05;;;;;;;5.68;2.67;;;;;;;;;;4891564;29;20055;-82
2022/06/03 01:27:33;;;;;;;5.80;2.80;;;;;;;;;;4908516;29;20587;-88
2022/06/03 01:29:58;;;;;;;9.70;3.38;;;;;;;;;;4904976;29;20560;-89
2022/06/03 01:32:31;;;;;;;7.75;2.88;;;;;;;;;;4893354;29;20044;-88
2022/06/03 01:35:12;;;;;;;5.43;2.88;;;;;;;;;;4892392;29;20048;-89
2022/06/03 01:37:59;;;;;;;7.25;3.00;;;;;;;;;;4892603;29;20044;-87
2022/06/03 01:40:43;;;;;;;6.20;2.85;;;;;;;;;;4908996;29;20111;-86
2022/06/03 01:43:22;;;;;;;3.33;2.70;;;;;;;;;;4906741;29;20051;-88
2022/06/03 01:46:01;;;;;;;6.80;2.88;;;;;;;;;;4909289;29;20052;-89
2022/06/03 01:48:33;;;;;;;9.02;3.15;;;;;;;;;;4908322;29;20486;-90
2022/06/03 01:51:26;;;;;;;5.88;2.85;;;;;;;;;;4905520;29;20429;-88
2022/06/03 01:53:55;;;;;;;5.93;3.00;;;;;;;;;;4892421;29;20562;-89
2022/06/03 01:56:40;;;;;;;8.55;3.17;;;;;;;;;;4892577;29;20508;-88
2022/06/03 01:59:18;;;;;;;4.82;2.63;;;;;;;;;;4899190;29;20052;-89
2022/06/03 02:02:02;;;;;;;6.60;3.47;;;;;;;;;;4879473;29;20055;-88
2022/06/03 02:04:32;;;;;;;5.38;3.33;;;;;;;;;;4880696;29;20052;-90
2022/06/03 02:07:01;;;;;;;10.02;3.30;;;;;;;;;;4903924;29;20048;-89
2022/06/03 02:09:46;;;;;;;5.35;3.67;;;;;;;;;;4900382;29;20080;-89
2022/06/03 02:12:27;;;;;;;7.80;2.85;;;;;;;;;;4901343;29;20303;-89
2022/06/03 02:15:11;;;;;;;5.13;3.30;;;;;;;;;;4899840;29;20044;-90
2022/06/03 02:17:37;;;;;;;;;;;;;;;;;;4902922;29;20086;-90
2022/06/03 02:20:16;;;;;;;4.57;3.05;;;;;;;;;;4897117;29;20010;-89
2022/06/03 02:22:48;;;;;;;4.45;3.50;;;;;;;;;;4902090;29;20427;-88
2022/06/03 02:25:33;;;;;;;7.85;3.47;;;;;;;;;;4899426;29;20043;-88
2022/06/03 02:27:59;;;;;;;5.20;3.42;;;;;;;;;;4909543;29;20047;-92
2022/06/03 02:30:37;;;;;;;7.22;3.30;;;;;;;;;;4905393;29;20052;-82
2022/06/03 02:33:06;;;;;;;7.72;2.90;;;;;;;;;;4893380;29;20107;-83
2022/06/03 02:35:44;;;;;;;3.78;3.00;;;;;;;;;;4887688;29;20055;-82
2022/06/03 02:38:29;;;;;;;10.43;4.03;;;;;;;;;;4900707;29;20109;-81
2022/06/03 02:41:12;;;;;;;11.95;3.50;;;;;;;;;;4885003;29;20056;-83
2022/06/03 02:43:48;;;;;;;7.55;4.03;;;;;;;;;;4884551;29;20127;-81
2022/06/03 02:46:14;;;;;;;6.40;3.47;;;;;;;;;;4884444;29;20036;-88
2022/06/03 02:48:56;;;;;;;8.13;3.80;;;;;;;;;;4885945;29;20050;-82
2022/06/03 02:51:31;;;;;;;9.63;3.63;;;;;;;;;;4899293;29;20048;-88
2022/06/03 02:54:21;;;;;;;8.85;3.80;;;;;;;;;;4887825;29;20060;-81
2022/06/03 02:56:50;;;;;;;6.28;3.55;;;;;;;;;;4882864;29;20103;-88
2022/06/03 02:59:31;;;;;;;9.85;3.90;;;;;;;;;;4898511;29;21899;-80
2022/06/03 03:02:11;;;;;;;5.25;3.75;;;;;;;;;;4899987;29;20067;-80
2022/06/03 03:04:49;;;;;;;7.60;3.85;;;;;;;;;;4882004;29;21426;-82
2022/06/03 03:07:53;;;;;;;5.97;3.55;;;11.30;99.90;;;;;;4902401;29;20408;-79
2022/06/03 03:10:19;;;;;;;5.00;3.65;;;;;;;;;;4881546;29;20063;-81
2022/06/03 03:12:45;;;;;;;7.40;3.53;;;;;;;;;;4901987;29;20120;-80
2022/06/03 03:15:11;;;;;;;9.35;4.55;;;;;;;;;;4883693;29;20140;-83
2022/06/03 03:17:44;;;;;;;8.95;4.30;;;;;;;;;;4885464;29;20044;-80
2022/06/03 03:20:20;;;;;;;8.38;5.00;;;;;;;;;;4897221;29;20059;-79
2022/06/03 03:23:05;;;;;;;10.90;4.70;;;;;;;;;;4902252;29;20386;-80
2022/06/03 03:25:33;;;;;;;7.50;4.15;;;;;;;;;;4902871;29;20399;-79
2022/06/03 03:28:23;;;;;;;6.88;4.30;;;;;;;;;;4904547;29;20456;-87
2022/06/03 03:30:49;;;;;;;9.23;4.32;;;;;;;;;;4880801;29;20599;-81
2022/06/03 03:33:27;;;;;;;8.10;4.32;;;;;;;;;;4886760;29;20499;-81
2022/06/03 03:35:53;;;;;;;10.80;4.68;;;;;;;;;;4882142;29;20119;-79
2022/06/03 03:38:25;;;;;;;7.40;4.43;;;;;;;;;;4882023;29;20048;-80
2022/06/03 03:40:54;;;;;;;7.50;4.40;;;;;;;;;;4899414;29;20063;-81
2022/06/03 03:43:27;;;;;;;8.55;4.53;;;;;;;;;;4898622;29;20048;-78
2022/06/03 03:46:05;;;;;;;5.43;4.07;;;;;;;;;;4881996;29;20074;-87
2022/06/03 03:48:40;;;;;;;6.90;4.45;;;;;;;;;;4911315;29;20165;-85
2022/06/03 03:51:26;;;;;;;12.27;4.55;;;;;;;;;;4904509;29;20050;-91
2022/06/03 03:53:54;;;;;;;7.88;4.53;;;;;;;;;;4899665;29;20115;-83
2022/06/03 03:56:39;;;;;;;7.32;4.35;;;;;;;;;;4883928;29;20072;-87
2022/06/03 03:59:17;;;;;;;9.90;4.38;;;;;;;;;;4901375;29;20039;-91
2022/06/03 04:01:46;;;;;;;10.10;4.00;;;;;;;;;;4899267;29;20408;-88
2022/06/03 04:04:27;;;;;;;8.75;3.88;;;;;;;;;;4905509;29;20048;-89
2022/06/03 04:07:12;;;;;;;12.65;4.80;;;;;;;;;;4918956;29;20072;-88
2022/06/03 04:09:45;;;;;;;6.45;4.47;;;;;;;;;;4918267;29;20580;-91
2022/06/03 04:12:14;;;;;;;6.85;4.25;;;;;;;;;;4919262;29;20664;-87
2022/06/03 04:15:04;;;;;;;9.43;4.72;;;;;;;;;;4912306;29;20567;-89
2022/06/03 04:17:30;;;;;;;9.10;6.10;;;;;;;;;;4893796;29;20535;-89
2022/06/03 04:20:02;;;;;;;12.52;6.00;;;;;;;;;;4894355;29;20052;-89
2022/06/03 04:22:47;;;;;;;13.38;5.85;;;;;;;;;;4890277;29;20116;-83
2022/06/03 04:25:45;;;;;;;12.23;6.28;;;;;;;;;;4891090;29;20356;-82
2022/06/03 04:28:27;;;;;;;7.15;6.00;;;;;;;;;;4864657;29;20091;-91
2022/06/03 04:31:13;;;;;;;7.97;5.40;;;;;;;;;;4908729;29;20129;-84
2022/06/03 04:33:54;;;;;;;9.02;6.07;;;;;;;;;;4894909;29;20054;-86
2022/06/03 04:36:26;;;;;;;10.38;5.70;;;;;;;;;;4913192;29;20384;-88
2022/06/03 04:39:02;;;;;;;10.57;6.13;;;;;;;;;;4909715;29;20048;-85
2022/06/03 04:41:47;;;;;;;12.65;6.32;;;;;;;;;;4891954;29;20062;-88
2022/06/03 04:44:13;;;;;;;18.77;5.70;;;;;;;;;;4908788;29;20071;-87
2022/06/03 04:46:42;;;;;;;9.73;5.88;;;;;;;;;;4893579;29;20476;-87
2022/06/03 04:49:10;;;;;;;9.23;5.95;;;;;;;;;;4874038;29;20123;-84
2022/06/03 04:51:48;;;;;;;9.77;6.63;;;;;;;;;;4908387;29;20044;-87
2022/06/03 04:54:34;;;;;;;8.32;5.22;;;;;;;;;;4907008;29;20040;-83
2022/06/03 04:57:06;;;;;;;14.07;6.18;;;;;;;;;;4893938;29;20100;-87
2022/06/03 04:59:47;;;;;;;13.75;6.45;;;;;;;;;;4911176;29;20044;-84
2022/06/03 05:02:16;;;;;;;7.03;5.30;;;;;;;;;;4913862;29;20048;-89
2022/06/03 05:04:55;;;;;;;14.65;7.53;;;;;;;;;;4876747;29;20556;-89
2022/06/03 05:07:27;;;;;;;8.30;5.97;;;;;;;;;;4914271;29;20595;-90
2022/06/03 05:10:29;;;;;;;11.88;5.72;;;;;;;;;;4897729;29;20048;-87
2022/06/03 05:13:13;;;;;;;9.82;5.78;;;;;;;;;;4895332;29;20048;-87
2022/06/03 05:15:39;;;;;;;8.45;5.47;;;;;;;;;;4889079;29;20504;-84
2022/06/03 05:18:29;;;;;;;13.48;5.68;;;;;;;;;;4890828;29;20683;-89
2022/06/03 05:21:10;;;;;;;9.27;5.18;;;;;;;;;;4903247;29;20399;-86
2022/06/03 05:24:01;;;;;;;8.65;5.78;;;;;;;;;;4894139;29;20055;-87
2022/06/03 05:26:27;;;;;;;7.25;6.07;;;;;;;;;;4892572;29;20500;-86
2022/06/03 05:29:06;;;;;;;12.48;6.15;;;;;;;;;;4912648;29;20120;-88
2022/06/03 05:31:58;;;;;;;13.55;6.57;;;;;;;;;;4915340;29;20497;-90
2022/06/03 05:34:31;;;;;;;16.50;7.10;;;;;;;;;;4909042;29;20519;-89
2022/06/03 05:37:00;;;;;;;11.23;6.40;;;;;;;;;;4914204;29;20048;-85
2022/06/03 05:39:29;;;;;;;11.68;5.85;;;;;;;;;;4901428;29;20056;-79
2022/06/03 05:42:29;;;;;;;8.55;5.53;;;;;;;;;;4919498;29;20094;-82
2022/06/03 05:45:04;;;;;;;13.93;7.22;;;;;;;;;;4922539;29;20048;-88
2022/06/03 05:47:53;;;;;;;10.85;6.30;;;;;;;;;;4908602;29;20056;-87
2022/06/03 05:50:23;;;;;;;12.60;6.05;;;;;;;;;;4914039;29;20084;-88
2022/06/03 05:52:58;;;;;;;10.20;6.82;;;;;;;;;;4918152;29;20036;-90
2022/06/03 05:55:30;;;;;;;8.75;5.93;;;;;;;;;;4912786;29;20063;-88
2022/06/03 05:58:14;;;;;;;13.60;6.85;;;;;;;;;;4914075;29;20044;-87
2022/06/03 06:00:52;;;;;;;10.52;6.43;;;;;;;;;;4912808;29;20814;-90
2022/06/03 06:03:37;;;;;;;9.73;6.28;;;;;;;;;;4917340;29;20099;-89
2022/06/03 06:06:22;;;;;;;10.52;6.35;;;;;;;;;;4912970;29;20060;-83
2022/06/03 06:08:53;;;;;;;11.68;6.68;;;;;;;;;;4911217;29;20518;-83
2022/06/03 06:11:29;;;;;;;9.35;6.13;;;;;;;;;;4906798;29;20040;-90
2022/06/03 06:14:09;;;;;;;11.52;6.70;;;;;;;;;;4908084;29;20045;-89
2022/06/03 06:16:38;;;;;;;8.43;6.70;;;;;;;;;;4907025;29;20063;-90
2022/06/03 06:19:05;;;;;;;11.30;6.32;;;;;;;;;;4910977;29;20382;-89
2022/06/03 06:21:50;;;;;;;8.30;6.82;;;;;;;;;;4908442;29;20060;-83
2022/06/03 06:24:35;;;;;;;6.97;6.15;;;;;;;;;;4904695;29;20056;-82
2022/06/03 06:27:01;;;;;;;8.52;6.55;;;;;;;;;;4902840;29;20059;-80
2022/06/03 06:29:39;;;;;;;9.95;6.22;;;;;;;;;;4899145;29;20043;-82
2022/06/03 06:32:05;;;;;;;7.22;5.97;;;;;;;;;;4904204;29;20043;-79
2022/06/03 06:34:34;;;;;;;8.85;5.93;;;;;;;;;;4907429;29;20549;-80
2022/06/03 06:37:19;;;;;;;8.27;6.25;;;;;;;;;;4909186;29;20146;-81
2022/06/03 06:39:58;;;;;;;11.10;6.18;;;;;;;;;;4906904;29;20055;-83
2022/06/03 06:42:42;;;;;;;10.65;6.05;;;;;;;;;;4908495;29;20115;-82
2022/06/03 06:45:21;;;;;;;9.95;5.90;;;;;;;;;;4915597;29;20504;-81
2022/06/03 06:48:06;;;;;;;9.82;5.70;;;;;;;;;;4906470;29;20493;-80
2022/06/03 06:50:55;;;;;;;9.25;6.20;;;;;;;;;;4908985;29;20141;-81
2022/06/03 06:53:31;;;;;;;9.77;5.75;;;;;;;;;;4890642;28;20136;-81
2022/06/03 06:56:01;;;;;;;8.32;4.70;;;;;;;;;;4912030;29;20448;-88
2022/06/03 06:58:50;;;;;;;7.40;3.70;;;;;;;;;;4912323;29;20457;-85
2022/06/03 07:01:25;;;;;;;4.40;3.45;;;;;;;;;;4899627;29;20055;-88
2022/06/03 07:04:02;;;;;;;3.42;2.70;;;;;;;;;;4910307;29;20524;-87
2022/06/03 07:06:38;;;;;;;3.85;2.78;;;;;;;;;;4890377;29;20078;-87
2022/06/03 07:09:10;;;;;;;4.45;2.50;;;;;;;;;;4912872;29;20052;-81
2022/06/03 07:11:58;;;;;;;4.93;2.38;;;;;;;;;;4912684;29;20044;-81
2022/06/03 07:14:32;;;;;;;4.90;2.88;;;;;;;;;;4918318;29;20070;-80
2022/06/03 07:20:16;;;;;;;5.25;2.17;;;14.80;99.90;;;;;;4893041;29;20531;-78
2022/06/03 07:22:55;;;;;;;5.07;2.42;;;;;;;;;;4906130;29;20419;-81
2022/06/03 07:25:24;;;;;;;4.78;2.13;;;;;;;;;;4890833;29;20077;-80
2022/06/03 07:28:00;;;;;;;5.55;2.42;;;;;;;;;;4890065;29;20052;-79
2022/06/03 07:30:31;;;;;;;6.97;2.65;;;;;;;;;;4909285;29;20052;-80
2022/06/03 07:33:06;;;;;;;4.70;2.97;;;;;;;;;;4908293;29;20459;-80
2022/06/03 07:35:45;;;;;;;4.93;2.53;;;;;;;;;;4908913;29;20312;-79
2022/06/03 07:38:20;;;;;;;2.67;2.20;;;;;;;;;;4906877;29;20067;-85
2022/06/03 07:40:53;;;;;;;3.97;2.13;;;;;;;;;;4910892;29;20187;-88
2022/06/03 07:43:19;;;;;;;2.45;1.95;;;;;;;;;;4907169;29;20052;-85
2022/06/03 07:45:52;;;;;;;2.38;2.10;;;;;;;;;;4912400;29;20602;-88
2022/06/03 07:48:22;;;;;;;2.38;2.17;;;;;;;;;;4914543;29;20055;-88
2022/06/03 07:50:59;;;;;;;2.25;2.05;;;;;;;;;;4912563;29;20511;-88
2022/06/03 07:53:25;;;;;;;2.88;2.10;;;;;;;;;;4915428;29;20184;-87
2022/06/03 07:55:55;;;;;;;2.92;1.70;;;;;;;;;;4912230;29;20044;-89
2022/06/03 07:58:22;;;;;;;5.22;2.35;;;;;;;;;;4913165;29;20048;-88
2022/06/03 08:00:48;;;;;;;7.18;2.38;;;;;;;;;;4901057;29;20127;-87
2022/06/03 08:03:16;;;;;;;5.93;2.10;;;;;;;;;;4912951;29;20111;-84
2022/06/03 08:05:46;;;;;;;3.30;2.10;;;;;;;;;;4916459;29;20060;-89
2022/06/03 08:11:05;;;;;;;3.38;2.10;;;;;;;;;;4914999;29;20091;-89
2022/06/03 08:13:39;;;;;;;4.57;2.15;;;;;;;;;;4911878;29;20217;-86
2022/06/03 08:16:08;;;;;;;4.40;1.90;;;;;;;;;;4915913;29;20043;-90
2022/06/03 08:18:40;;;;;;;4.53;2.40;;;;;;;;;;4919975;29;20052;-90
2022/06/03 08:21:25;;;;;;;2.88;2.05;;;;;;;;;;4928550;29;20040;-88
2022/06/03 08:23:52;;;;;;;6.55;2.45;;;;;;;;;;4925982;29;20137;-89
2022/06/03 08:26:21;;;;;;;4.68;2.45;;;;;;;;;;4917741;29;20051;-79
2022/06/03 08:29:07;;;;;;;4.47;2.03;;;;;;;;;;4917567;29;20036;-87
2022/06/03 08:31:33;;;;;;;2.42;1.60;;;;;;;;;;4880318;29;20064;-81
2022/06/03 08:34:00;;;;;;;3.22;1.83;;;;;;;;;;4928094;29;20028;-93
2022/06/03 08:36:29;;;;;;;4.88;1.80;;;;;;;;;;4902915;29;20040;-90
2022/06/03 08:38:55;;;;;;;2.17;1.70;;;;;;;;;;4914378;29;20080;-91
2022/06/03 08:41:24;;;;;;;2.88;1.77;;;;;;;;;;4914901;29;20044;-88
2022/06/03 08:44:16;;;;;;;2.22;1.80;;;;;;;;;;4911005;29;20484;-87
2022/06/03 08:46:42;;;;;;;2.33;1.38;;;;;;;;;;4912250;29;20044;-90
2022/06/03 08:49:15;;;;;;;2.38;1.45;;;;;;;;;;4912939;29;20051;-87
2022/06/03 08:52:08;;;;;;;2.83;1.48;;;;;;;;;;4910626;29;20409;-86
2022/06/03 08:54:37;;;;;;;1.88;1.40;;;;;;;;;;4905326;29;20410;-85
2022/06/03 08:57:08;;;;;;;3.70;1.70;;;;;;;;;;4912623;29;20046;-92
2022/06/03 08:59:39;;;;;;;1.95;1.17;;;;;;;;;;4911335;29;20124;-82
2022/06/03 09:02:12;;;;;;;4.75;1.60;;;;;;;;;;4895124;29;20392;-82
2022/06/03 09:04:46;;;;;;;4.68;2.05;;;;;;;;;;4911773;29;20051;-90
2022/06/03 09:07:19;;;;;;;3.40;1.70;;;;;;;;;;4896155;29;20044;-86
2022/06/03 09:09:54;;;;;;;2.80;1.65;;;;;;;;;;4896139;29;20048;-88
2022/06/03 09:12:26;;;;;;;5.50;1.80;;;;;;;;;;4909773;29;20052;-84
2022/06/03 09:14:53;;;;;;;5.35;1.90;;;;;;;;;;4911141;29;20040;-88
2022/06/03 09:17:25;;;;;;;3.85;1.40;;;;;;;;;;4907180;29;20102;-87
2022/06/03 09:19:52;;;;;;;2.60;1.60;;;;;;;;;;4918320;29;20103;-88
2022/06/03 09:22:23;;;;;;;2.60;1.80;;;;;;;;;;4895930;29;20052;-91
2022/06/03 09:24:50;;;;;;;2.60;1.52;;;;;;;;;;4922708;29;20055;-89
2022/06/03 09:27:17;;;;;;;4.28;1.50;;;;;;;;;;4914251;29;20071;-83
2022/06/03 09:29:48;;;;;;;2.55;1.23;;;;;;;;;;4908037;29;20054;-89
2022/06/03 09:32:16;;;;;;;2.67;1.10;;;;;;;;;;4885957;29;20128;-94
2022/06/03 09:34:42;;;;;;;1.73;1.15;;;;;;;;;;4901612;29;20040;-86
2022/06/03 09:37:12;;;;;;;1.40;1.27;;;;;;;;;;4898871;29;20174;-91
2022/06/03 09:39:39;;;;;;;2.78;1.50;;;;;;;;;;4920651;29;20047;-88
2022/06/03 09:42:06;;;;;;;3.25;1.48;;;;;;;;;;4910007;29;20044;-93
2022/06/03 09:44:32;;;;;;;3.42;1.83;;;;;;;;;;4912234;29;20044;-81
2022/06/03 09:49:55;;;;;;;2.97;1.40;;;;;;;;;;4891968;29;20797;-91
2022/06/03 09:52:23;;;;;;;3.25;1.60;;;;;;;;;;4915449;29;20124;-86
2022/06/03 09:54:50;;;;;;;3.03;1.65;;;;;;;;;;4902276;29;20130;-91
2022/06/03 09:57:30;;;;;;;3.13;1.70;;;;;;;;;;4899442;29;20052;-93
2022/06/03 09:59:57;;;;;;;3.85;1.55;;;;;;;;;;4894603;29;20040;-91
2022/06/03 10:02:25;;;;;;;2.58;1.85;;;;;;;;;;4904276;29;20043;-93
2022/06/03 10:04:51;;;;;;;4.72;1.92;;;;;;;;;;4914477;29;20040;-91
2022/06/03 10:07:17;;;;;;;3.35;1.92;;;;;;;;;;4917194;29;20036;-94
2022/06/03 10:15:38;;;;;;;7.22;1.58;;;;;;;;;;4917733;29;20051;-82
2022/06/03 10:18:15;;;;;;;3.42;1.90;;;;;;;;;;4919270;29;20040;-92
2022/06/03 10:20:43;;;;;;;5.95;1.70;;;;;;;;;;4935451;29;20048;-82
2022/06/03 10:23:09;;;;;;;3.67;1.58;;;;;;;;;;4921674;29;20140;-83
2022/06/03 10:25:37;;;;;;;3.50;1.70;;;;;;;;;;4922242;29;20563;-83
2022/06/03 10:28:04;;;;;;;2.50;1.40;;;;;;;;;;4915155;29;20091;-81
2022/06/03 10:30:31;;;;;;;4.35;2.10;;;;;;;;;;4904088;29;20116;-84
2022/06/03 10:32:57;;;;;;;4.60;1.60;;;;;;;;;;4918053;29;20073;-87
2022/06/03 10:35:28;;;;;;;2.45;1.65;;;;;;;;;;4919558;29;20483;-84
2022/06/03 10:37:56;;;;;;;2.30;1.55;;;;;;;;;;4915025;29;20131;-81
2022/06/03 10:40:24;;;;;;;2.88;1.40;;;;;;;;;;4901199;29;20192;-90
2022/06/03 10:42:54;;;;;;;5.10;1.60;;;;;;;;;;4919783;29;20064;-86
2022/06/03 10:45:25;;;;;;;2.30;1.27;;;;;;;;;;4921003;29;20275;-81
2022/06/03 10:47:51;;;;;;;1.38;1.27;;;;;;;;;;4918993;29;20526;-91
2022/06/03 10:50:47;;;;;;;3.55;1.50;;;;;;;;;;4906190;29;20067;-87
2022/06/03 11:01:49;;;;;;;4.40;1.30;;;;;;;;;;4885058;29;20160;-86
2022/06/03 11:04:24;;;;;;;4.40;1.60;;;;;;;;;;4892803;29;20132;-84
2022/06/03 11:06:50;;;;;;;5.13;1.25;;;;;;;;;;4902984;29;20060;-81
2022/06/03 11:09:17;;;;;;;4.75;1.30;;;;;;;;;;4906577;29;20047;-80
2022/06/03 11:11:47;;;;;;;2.67;1.50;;;;;;;;;;4909281;29;20052;-83
2022/06/03 11:14:26;;;;;;;3.33;1.85;;;;;;;;;;4905390;29;20048;-81
2022/06/03 11:16:58;;;;;;;5.95;1.40;;;;;;;;;;4909549;29;20476;-85
2022/06/03 11:19:24;;;;;;;4.18;1.45;;;;;;;;;;4903283;29;20539;-86
2022/06/03 11:22:24;;;;;;;1.83;1.10;;;;;;;;;;4910188;29;20524;-81
2022/06/03 11:24:51;;;;;;;4.95;1.25;;;;;;;;;;4883463;29;20052;-84
2022/06/03 11:27:19;;;;;;;4.50;1.38;;;;;;;;;;4909465;29;20051;-82
2022/06/03 11:29:46;;;;;;;2.65;1.17;;;;;;;;;;4909433;29;20484;-81
2022/06/03 11:32:13;;;;;;;3.10;1.20;;;;;;;;;;4906687;29;20488;-83
2022/06/03 11:34:55;;;;;;;5.32;1.80;;;;;;;;;;4894488;29;20059;-83
2022/06/03 11:37:25;;;;;;;6.53;1.30;;;;;;;;;;4891176;29;20067;-84
2022/06/03 11:39:56;;;;;;;2.15;1.02;;;;;;;;;;4891057;29;20114;-81
2022/06/03 11:42:26;;;;;;;1.63;1.00;;;;;;;;;;4907055;29;20048;-83
2022/06/03 11:45:03;;;;;;;2.20;1.00;;;;;;;;;;4889971;29;20490;-82
2022/06/03 11:47:33;;;;;;;3.15;1.20;;;;;;;;;;4908282;29;20048;-84
2022/06/03 11:49:59;;;;;;;1.50;0.93;;;;;;;;;;4907725;29;20056;-85
2022/06/03 11:52:25;;;;;;;6.53;1.20;;;;;;;;;;4908427;29;20063;-84
2022/06/03 11:54:52;;;;;;;1.70;0.85;;;;;;;;;;4891396;29;20127;-84
2022/06/03 11:57:19;;;;;;;5.90;1.60;;;;;;;;;;4887962;29;20037;-84
2022/06/03 11:59:58;;;;;;;4.82;1.02;;;;;;;;;;4892292;29;20107;-85
2022/06/03 12:02:24;;;;;;;4.32;1.10;;;;;;;;;;4888849;29;20060;-85
2022/06/03 12:04:57;;;;;;;29.08;1.67;;;;;;;;;;4909021;29;20864;-82
2022/06/03 12:07:23;;;;;;;3.95;1.00;;;;;;;;;;4890689;29;20044;-83
2022/06/03 12:10:10;;;;;;;2.92;1.02;;;;;;;;;;4891876;29;20138;-82
2022/06/03 12:15:33;;;;;;;4.78;1.25;;;;;;;;;;4888797;29;20519;-82
2022/06/03 12:18:02;;;;;;;4.90;1.17;;;;;;;;;;4899442;29;20048;-82
2022/06/03 12:20:32;;;;;;;6.50;1.55;;;;;;;;;;4897759;29;20036;-83
2022/06/03 12:23:13;;;;;;;5.07;1.45;;;;;;;;;;4894251;29;20044;-82
2022/06/03 12:25:51;;;;;;;5.68;1.10;;;;;;;;;;4907719;29;20139;-82
2022/06/03 12:28:27;;;;;;;6.20;1.48;;;;;;;;;;4893941;29;20079;-82
2022/06/03 12:30:59;;;;;;;4.68;1.15;;;;;;;;;;4895899;29;20044;-83
2022/06/03 12:33:27;;;;;;;3.92;1.15;;;;;;;;;;4895072;29;20099;-83
2022/06/03 12:35:56;;;;;;;2.92;1.27;;;;;;;;;;4913464;29;20036;-82
2022/06/03 12:38:23;;;;;;;3.30;1.00;;;;;;;;;;4909384;29;20051;-82
2022/06/03 12:40:57;;;;;;;5.57;1.30;;;;;;;;;;4891591;29;20041;-81
2022/06/03 12:43:24;;;;;;;3.13;1.10;;;;;;;;;;4907629;29;20567;-83
2022/06/03 12:46:04;;;;;;;4.18;1.23;;;;;;;;;;4889525;29;20040;-82
2022/06/03 12:48:45;;;;;;;6.85;1.30;;;;;;;;;;4906448;29;20099;-81
2022/06/03 12:51:20;;;;;;;6.50;1.40;;;;;;;;;;4871450;29;20408;-82
2022/06/03 12:53:48;;;;;;;4.28;1.27;;;;;;;;;;4891243;29;20046;-82
2022/06/03 12:56:25;;;;;;;5.18;1.27;;;;;;;;;;4890229;29;20056;-82
2022/06/03 12:59:19;;;;;;;9.60;1.90;;;;;;;;;;4905959;29;20044;-82
2022/06/03 13:02:02;;;;;;;7.70;1.40;;;;;;;;;;4908188;29;20068;-82
2022/06/03 13:05:06;;;;;;;2.85;1.13;;;;;;;;;;4886754;29;20402;-82
2022/06/03 13:07:34;;;;;;;2.53;1.08;;;;;;;;;;4906173;29;20103;-82
2022/06/03 13:10:03;;;;;;;3.95;1.30;;;;;;;;;;4907654;29;20035;-82
2022/06/03 13:12:34;;;;;;;5.50;1.85;;;;;;;;;;4906014;29;20044;-82
2022/06/03 13:15:18;;;;;;;4.97;1.23;;;;;;;;;;4907728;29;20396;-83
2022/06/03 13:18:09;;;;;;;7.72;1.83;;;;;;;;;;4913471;29;20039;-82
2022/06/03 13:21:01;;;;;;;4.18;1.10;;;;;;;;;;4907093;29;20055;-82
2022/06/03 13:23:30;;;;;;;6.72;1.55;;;;;;;;;;4907574;29;20732;-82
2022/06/03 13:26:15;;;;;;;4.55;1.40;;;;;;;;;;4889323;29;20583;-82
2022/06/03 13:28:43;;;;;;;6.82;1.40;;;;;;;;;;4890549;29;20143;-82
2022/06/03 13:31:13;;;;;;;4.68;1.48;;;;;;;;;;4905306;29;20056;-83
2022/06/03 13:34:08;;;;;;;4.95;1.40;;;;;;;;;;4888191;29;20473;-82
2022/06/03 13:36:38;;;;;;;5.10;1.42;;;;;;;;;;4906419;29;20048;-81
2022/06/03 13:39:05;;;;;;;7.30;1.50;;;;;;;;;;4904526;29;20150;-82
2022/06/03 13:45:00;;;;;;;4.82;1.42;;;;;;;;;;4902805;29;20059;-83
2022/06/03 13:47:28;;;;;;;6.38;1.30;;;;;;;;;;4865107;29;20060;-82
2022/06/03 13:49:57;;;;;;;6.32;1.55;;;;;;;;;;4867624;29;20059;-83
2022/06/03 13:52:27;;;;;;;5.43;1.50;;;;;;;;;;4884096;29;20048;-83
2022/06/03 13:54:56;;;;;;;5.88;1.30;;;;;;;;;;4884606;29;20159;-83
2022/06/03 13:57:29;;;;;;;4.32;1.63;;;;;;;;;;4884105;29;20063;-83
2022/06/03 14:00:06;;;;;;;6.18;1.38;;;;;;;;;;4888209;29;20130;-84
2022/06/03 14:02:36;;;;;;;3.30;1.60;;;;;;;;;;4886156;29;20044;-83
2022/06/03 14:05:13;;;;;;;6.40;1.60;;;;;;;;;;4867475;29;20895;-83
2022/06/03 14:07:44;;;;;;;5.60;1.60;;;;;;;;;;4885949;29;20041;-82
2022/06/03 14:10:18;;;;;;;3.65;1.35;;;;;;;;;;4868488;29;20135;-84
2022/06/03 14:12:52;;;;;;;8.77;1.50;;;;;;;;;;4871844;29;20060;-85
2022/06/03 14:15:31;;;;;;;3.55;1.58;;;;;;;;;;4864596;29;20041;-85
2022/06/03 14:17:59;;;;;;;3.80;1.48;;;;;;;;;;4886247;29;20045;-84
2022/06/03 14:20:28;;;;;;;3.92;1.88;;;;;;;;;;4884443;29;20040;-85
2022/06/03 14:22:54;;;;;;;4.53;1.42;;;;;;;;;;4885592;29;20484;-85
2022/06/03 14:25:25;;;;;;;5.88;1.70;;;;;;;;;;4869226;29;20157;-85
2022/06/03 14:27:56;;;;;;;6.32;1.75;;;;;;;;;;4867474;29;20079;-84
2022/06/03 14:30:25;;;;;;;3.47;1.58;;;;;;;;;;4866523;29;20037;-84
2022/06/03 14:32:58;;;;;;;5.97;1.88;;;;;;;;;;4866673;29;20143;-86
2022/06/03 14:35:29;;;;;;;5.38;1.38;;;;;;;;;;4883139;29;20048;-85
2022/06/03 14:38:01;;;;;;;4.70;1.70;;;;;;;;;;4895334;29;20128;-84
2022/06/03 14:40:41;;;;;;;7.63;1.90;;;;;;;;;;4891302;29;20128;-85
2022/06/03 14:43:08;;;;;;;4.75;1.80;;;;;;;;;;4888153;29;20103;-86
2022/06/03 14:45:40;;;;;;;8.70;1.80;;;;;;;;;;4890508;29;20144;-86
2022/06/03 14:48:11;;;;;;;8.90;2.25;;;;;;;;;;4901124;29;20048;-86
2022/06/03 14:50:41;;;;;;;3.85;1.70;;;;;;;;;;4890657;29;20048;-85
2022/06/03 14:53:26;;;;;;;4.50;2.00;;;;;;;;;;4873038;29;20084;-82
2022/06/03 14:56:01;;;;;;;5.18;1.80;;;;;;;;;;4891826;29;20087;-84
2022/06/03 14:58:34;;;;;;;5.80;2.25;;;;;;;;;;4908521;29;20066;-84
2022/06/03 15:01:15;;;;;;;6.75;2.42;;;;;;;;;;4892222;29;20135;-84
2022/06/03 15:03:47;;;;;;;7.13;2.20;;;;;;;;;;4887910;29;20041;-84
2022/06/03 15:06:14;;;;;;;7.05;2.15;;;;;;;;;;4892949;29;20052;-83
2022/06/03 15:08:46;;;;;;;6.65;1.92;;;;;;;;;;4908335;29;20099;-83
2022/06/03 15:11:20;;;;;;;14.55;3.17;;;;;;;;;;4910754;29;20044;-84
2022/06/03 15:13:48;;;;;;;4.60;1.88;;;;;;;;;;4914883;29;20050;-83
2022/06/03 15:16:14;;;;;;;3.88;1.90;;;;;;;;;;4915233;29;20052;-83
2022/06/03 15:18:42;;;;;;;6.13;1.88;;;;;;;;;;4875873;29;20077;-84
2022/06/03 15:21:23;;;;;;;4.22;1.67;;;;;;;;;;4885631;29;20029;-83
2022/06/03 15:23:58;;;;;;;6.05;1.90;;;;;;;;;;4912422;29;20099;-83
2022/06/03 15:26:29;;;;;;;4.20;1.90;;;;;;;;;;4904327;29;20052;-83
2022/06/03 15:29:01;;;;;;;9.50;2.30;;;;;;;;;;4883819;29;20036;-83
2022/06/03 15:31:29;;;;;;;11.60;2.08;;;;;;;;;;4895636;29;20192;-83
2022/06/03 15:33:57;;;;;;;7.70;2.20;;;;;;;;;;4906104;29;20071;-83
2022/06/03 15:36:28;;;;;;;5.57;1.90;;;;;;;;;;4908838;29;20099;-85
2022/06/03 15:39:17;;;;;;;3.60;1.73;;;;;;;;;;4891999;29;20130;-84
2022/06/03 15:41:46;;;;;;;4.68;1.80;;;;;;;;;;4907535;29;20060;-83
2022/06/03 15:44:12;;;;;;;6.72;1.90;;;;;;;;;;4905988;29;20085;-83
2022/06/03 15:46:57;;;;;;;7.85;1.90;;;;;;;;;;4858125;29;20045;-82
2022/06/03 15:49:25;;;;;;;4.00;1.70;;;;;;;;;;4893302;29;20052;-84
2022/06/03 15:51:54;;;;;;;4.20;1.70;;;;;;;;;;4918389;29;20068;-84